Terminal Aerodrome Forecast
Issued by NWS

Home | Current Version | Previous Version | Text Only | Print | Product List | Glossary Off
Versions: 1 2 3 4 5 6 7 8 9 10 11 12 13 14 15 16 17 18 19 20 21 22 23 24 25 26 27 28

065
FTUS43 KLOT 190532
TAFMDW
TAF
KMDW 190532Z 1906/2006 21006KT 4SM BR FEW009
     FM190900 21006KT 2SM BR FEW006 BKN250
     FM191500 16008KT 6SM BR SCT015 BKN100
     FM192000 10010KT P6SM OVC035
     FM200100 10007KT 3SM -RA SCT010 OVC025
     FM200400 09007KT 2SM -RA BKN007 OVC015=

USA.gov is the U.S. government's official web portal to all federal, state and local government web resources and services.